Nieuwpoort, Belgium
Current Conditions -  °F | °C
As of 7:49 AM on Tuesday 21 Oct 2014 (Local Time) from EBFN Reporting Station
Broken Clouds Broken Clouds  
Wind Chill: 55°   Ceiling: 1800
Heat Index: 55°   Visibility: 4mi
Dew Point: 54°   Wind: 13mph
Humidity: 94%   Direction: 200°SSW
Pressure: 29.71"   Gusts: NA
Location:  51.13°N, 2.75°E
Report Text: EBFN 210549Z 20011KT 7000 FEW011 SCT013 BKN018 13/12 Q1006 GRN GRN
Loading
Personal Weather Stations






























Interactive Weather Map
Tropical Storm Tracking
New forecast layout! Learn more

10-Day Weather Forecast

Advertisements
Track Severe Weather on mobile